Back to Top

Language: 

My Weather Underground Personal Weather Station Historical Data with Graphs...

Delerius Weather Station Historical Data
Daily Summary for January 13, 2018 Units:  Both    English   Metric
« Previous Day
Next Day »
Daily Weekly Monthly Yearly Custom
  High: Low: Average:
Temperature: 42.3 °F /  5.7 °C 39.2 °F /  4 °C 41.2 °F /  5.1 °C
Dew Point: 40.7 °F /  4.8 °C 35.7 °F /  2.1 °C 38.4 °F /  3.6 °C
Humidity: 94 % 86 % 90 %
Wind Speed: 13.0 mph /  20.9 km/h - 7.9 mph /  12.7 km/h
Wind Gust: 20.0 mph /  32.2 km/h - -
Wind:- - SE
Pressure: 30.16 in /  1021.2 hPa 30.06 in /  1017.8 hPa -
Precipitation: 0.00 in /  0 mm    
Historical Graphs
 
 
Tabular Data for January 13, 2018
Time Temperature Dew Point Pressure Wind Wind Speed Wind Gust Humidity Rainfall Rate (Hourly) solar Conditions
00:05 42.3 °F /  5.7 °C 40.7 °F /  4.8 °C 30.16 in /  1021.2 hPa SE 8.0 mph /  12.9 km/h 10.0 mph /  16.1 km/h 94 % 0.00 in /  0 mm 0 W/m2
00:10 42.3 °F /  5.7 °C 40.7 °F /  4.8 °C 30.16 in /  1021.2 hPa SE 8.0 mph /  12.9 km/h 10.0 mph /  16.1 km/h 94 % 0.00 in /  0 mm 0 W/m2
00:15 42.3 °F /  5.7 °C 40.7 °F /  4.8 °C 30.16 in /  1021.2 hPa SE 7.0 mph /  11.3 km/h 9.0 mph /  14.5 km/h 94 % 0.00 in /  0 mm 0 W/m2
00:34 42.3 °F /  5.7 °C 40.7 °F /  4.8 °C 30.15 in /  1020.9 hPa SE 8.0 mph /  12.9 km/h 11.0 mph /  17.7 km/h 94 % 0.00 in /  0 mm 0 W/m2
00:43 42.3 °F /  5.7 °C 40.7 °F /  4.8 °C 30.15 in /  1020.9 hPa SE 7.0 mph /  11.3 km/h 9.0 mph /  14.5 km/h 94 % 0.00 in /  0 mm 0 W/m2
00:49 42.3 °F /  5.7 °C 40.7 °F /  4.8 °C 30.15 in /  1020.9 hPa SE 7.0 mph /  11.3 km/h 11.0 mph /  17.7 km/h 94 % 0.00 in /  0 mm 0 W/m2
00:54 42.3 °F /  5.7 °C 40.7 °F /  4.8 °C 30.15 in /  1020.9 hPa SE 7.0 mph /  11.3 km/h 11.0 mph /  17.7 km/h 94 % 0.00 in /  0 mm 0 W/m2
01:02 42.3 °F /  5.7 °C 40.7 °F /  4.8 °C 30.15 in /  1020.9 hPa SE 8.0 mph /  12.9 km/h 11.0 mph /  17.7 km/h 94 % 0.00 in /  0 mm 0 W/m2
01:08 42.3 °F /  5.7 °C 40.7 °F /  4.8 °C 30.15 in /  1020.9 hPa SE 6.0 mph /  9.7 km/h 10.0 mph /  16.1 km/h 94 % 0.00 in /  0 mm 0 W/m2
01:14 42.3 °F /  5.7 °C 40.7 °F /  4.8 °C 30.15 in /  1020.9 hPa SE 6.0 mph /  9.7 km/h 9.0 mph /  14.5 km/h 94 % 0.00 in /  0 mm 0 W/m2
01:23 42.3 °F /  5.7 °C 40.7 °F /  4.8 °C 30.14 in /  1020.5 hPa SE 6.0 mph /  9.7 km/h 10.0 mph /  16.1 km/h 94 % 0.00 in /  0 mm 0 W/m2
01:29 42.3 °F /  5.7 °C 40.7 °F /  4.8 °C 30.14 in /  1020.5 hPa SE 6.0 mph /  9.7 km/h 10.0 mph /  16.1 km/h 94 % 0.00 in /  0 mm 0 W/m2
01:34 42.3 °F /  5.7 °C 40.7 °F /  4.8 °C 30.14 in /  1020.5 hPa SSE 6.0 mph /  9.7 km/h 9.0 mph /  14.5 km/h 94 % 0.00 in /  0 mm 0 W/m2
01:46 42.1 °F /  5.6 °C 40.5 °F /  4.7 °C 30.14 in /  1020.5 hPa SE 7.0 mph /  11.3 km/h 10.0 mph /  16.1 km/h 94 % 0.00 in /  0 mm 0 W/m2
01:53 42.1 °F /  5.6 °C 40.5 °F /  4.7 °C 30.14 in /  1020.5 hPa SE 6.0 mph /  9.7 km/h 10.0 mph /  16.1 km/h 94 % 0.00 in /  0 mm 0 W/m2
02:07 42.1 °F /  5.6 °C 40.5 °F /  4.7 °C 30.14 in /  1020.5 hPa SE 7.0 mph /  11.3 km/h 11.0 mph /  17.7 km/h 94 % 0.00 in /  0 mm 0 W/m2
02:13 41.9 °F /  5.5 °C 40.3 °F /  4.6 °C 30.13 in /  1020.2 hPa SE 6.0 mph /  9.7 km/h 8.0 mph /  12.9 km/h 94 % 0.00 in /  0 mm 0 W/m2
02:24 41.9 °F /  5.5 °C 40.3 °F /  4.6 °C 30.13 in /  1020.2 hPa SE 8.0 mph /  12.9 km/h 12.0 mph /  19.3 km/h 94 % 0.00 in /  0 mm 0 W/m2
02:40 41.7 °F /  5.4 °C 40.1 °F /  4.5 °C 30.13 in /  1020.2 hPa SE 8.0 mph /  12.9 km/h 11.0 mph /  17.7 km/h 94 % 0.00 in /  0 mm 0 W/m2
02:52 41.7 °F /  5.4 °C 40.1 °F /  4.5 °C 30.12 in /  1019.9 hPa SE 9.0 mph /  14.5 km/h 14.0 mph /  22.5 km/h 94 % 0.00 in /  0 mm 0 W/m2
02:57 41.7 °F /  5.4 °C 40.1 °F /  4.5 °C 30.12 in /  1019.9 hPa SE 9.0 mph /  14.5 km/h 14.0 mph /  22.5 km/h 94 % 0.00 in /  0 mm 0 W/m2
03:15 41.7 °F /  5.4 °C 39.8 °F /  4.3 °C 30.12 in /  1019.9 hPa SE 6.0 mph /  9.7 km/h 12.0 mph /  19.3 km/h 93 % 0.00 in /  0 mm 0 W/m2
03:21 41.7 °F /  5.4 °C 39.8 °F /  4.3 °C 30.12 in /  1019.9 hPa SE 6.0 mph /  9.7 km/h 10.0 mph /  16.1 km/h 93 % 0.00 in /  0 mm 0 W/m2
03:26 41.7 °F /  5.4 °C 39.6 °F /  4.2 °C 30.12 in /  1019.9 hPa SSE 7.0 mph /  11.3 km/h 10.0 mph /  16.1 km/h 92 % 0.00 in /  0 mm 0 W/m2
03:33 41.7 °F /  5.4 °C 39.6 °F /  4.2 °C 30.11 in /  1019.5 hPa SE 6.0 mph /  9.7 km/h 10.0 mph /  16.1 km/h 92 % 0.00 in /  0 mm 0 W/m2
03:42 41.7 °F /  5.4 °C 39.6 °F /  4.2 °C 30.11 in /  1019.5 hPa SE 11.0 mph /  17.7 km/h 19.0 mph /  30.6 km/h 92 % 0.00 in /  0 mm 0 W/m2
03:48 41.5 °F /  5.3 °C 39.4 °F /  4.1 °C 30.11 in /  1019.5 hPa SSE 9.0 mph /  14.5 km/h 16.0 mph /  25.7 km/h 92 % 0.00 in /  0 mm 0 W/m2
04:10 41.4 °F /  5.2 °C 38.9 °F /  3.8 °C 30.10 in /  1019.2 hPa SE 9.0 mph /  14.5 km/h 15.0 mph /  24.1 km/h 91 % 0.00 in /  0 mm 0 W/m2
04:24 41.2 °F /  5.1 °C 38.8 °F /  3.8 °C 30.10 in /  1019.2 hPa SE 7.0 mph /  11.3 km/h 10.0 mph /  16.1 km/h 91 % 0.00 in /  0 mm 0 W/m2
04:31 41.2 °F /  5.1 °C 38.8 °F /  3.8 °C 30.10 in /  1019.2 hPa SE 8.0 mph /  12.9 km/h 13.0 mph /  20.9 km/h 91 % 0.00 in /  0 mm 0 W/m2
04:39 41.0 °F /  5 °C 38.6 °F /  3.7 °C 30.10 in /  1019.2 hPa SE 8.0 mph /  12.9 km/h 14.0 mph /  22.5 km/h 91 % 0.00 in /  0 mm 0 W/m2
04:47 40.8 °F /  4.9 °C 38.4 °F /  3.6 °C 30.10 in /  1019.2 hPa SE 9.0 mph /  14.5 km/h 15.0 mph /  24.1 km/h 91 % 0.00 in /  0 mm 0 W/m2
04:52 40.8 °F /  4.9 °C 38.4 °F /  3.6 °C 30.10 in /  1019.2 hPa SE 9.0 mph /  14.5 km/h 11.0 mph /  17.7 km/h 91 % 0.00 in /  0 mm 0 W/m2
05:03 40.6 °F /  4.8 °C 38.2 °F /  3.4 °C 30.09 in /  1018.8 hPa SE 10.0 mph /  16.1 km/h 14.0 mph /  22.5 km/h 91 % 0.00 in /  0 mm 0 W/m2
05:19 40.6 °F /  4.8 °C 38.2 °F /  3.4 °C 30.09 in /  1018.8 hPa SSE 8.0 mph /  12.9 km/h 11.0 mph /  17.7 km/h 91 % 0.00 in /  0 mm 0 W/m2
05:31 40.5 °F /  4.7 °C 38.0 °F /  3.3 °C 30.09 in /  1018.8 hPa SE 9.0 mph /  14.5 km/h 16.0 mph /  25.7 km/h 91 % 0.00 in /  0 mm 0 W/m2
05:36 40.5 °F /  4.7 °C 38.0 °F /  3.3 °C 30.09 in /  1018.8 hPa SE 9.0 mph /  14.5 km/h 13.0 mph /  20.9 km/h 91 % 0.00 in /  0 mm 0 W/m2
05:41 40.5 °F /  4.7 °C 38.0 °F /  3.3 °C 30.09 in /  1018.8 hPa SE 8.0 mph /  12.9 km/h 16.0 mph /  25.7 km/h 91 % 0.00 in /  0 mm 0 W/m2
05:47 40.5 °F /  4.7 °C 38.0 °F /  3.3 °C 30.09 in /  1018.8 hPa SE 9.0 mph /  14.5 km/h 14.0 mph /  22.5 km/h 91 % 0.00 in /  0 mm 0 W/m2
05:54 40.5 °F /  4.7 °C 38.0 °F /  3.3 °C 30.09 in /  1018.8 hPa SE 9.0 mph /  14.5 km/h 12.0 mph /  19.3 km/h 91 % 0.00 in /  0 mm 0 W/m2
06:02 40.3 °F /  4.6 °C 37.9 °F /  3.3 °C 30.09 in /  1018.8 hPa SE 7.0 mph /  11.3 km/h 14.0 mph /  22.5 km/h 91 % 0.00 in /  0 mm 0 W/m2
06:20 40.3 °F /  4.6 °C 37.9 °F /  3.3 °C 30.09 in /  1018.8 hPa SE 7.0 mph /  11.3 km/h 12.0 mph /  19.3 km/h 91 % 0.00 in /  0 mm 0 W/m2
06:29 40.3 °F /  4.6 °C 37.9 °F /  3.3 °C 30.09 in /  1018.8 hPa SE 8.0 mph /  12.9 km/h 12.0 mph /  19.3 km/h 91 % 0.00 in /  0 mm 0 W/m2
06:35 40.3 °F /  4.6 °C 37.9 °F /  3.3 °C 30.09 in /  1018.8 hPa SE 7.0 mph /  11.3 km/h 11.0 mph /  17.7 km/h 91 % 0.00 in /  0 mm 0 W/m2
06:52 40.3 °F /  4.6 °C 37.9 °F /  3.3 °C 30.08 in /  1018.5 hPa SE 4.0 mph /  6.4 km/h 7.0 mph /  11.3 km/h 91 % 0.00 in /  0 mm 0 W/m2
07:06 40.3 °F /  4.6 °C 37.9 °F /  3.3 °C 30.08 in /  1018.5 hPa SSE 6.0 mph /  9.7 km/h 11.0 mph /  17.7 km/h 91 % 0.00 in /  0 mm 0 W/m2
07:11 40.3 °F /  4.6 °C 37.6 °F /  3.1 °C 30.09 in /  1018.8 hPa SE 7.0 mph /  11.3 km/h 11.0 mph /  17.7 km/h 90 % 0.00 in /  0 mm 0 W/m2
07:26 40.3 °F /  4.6 °C 37.6 °F /  3.1 °C 30.08 in /  1018.5 hPa SE 6.0 mph /  9.7 km/h 13.0 mph /  20.9 km/h 90 % 0.00 in /  0 mm 0 W/m2
07:39 40.3 °F /  4.6 °C 37.6 °F /  3.1 °C 30.08 in /  1018.5 hPa SE 7.0 mph /  11.3 km/h 10.0 mph /  16.1 km/h 90 % 0.00 in /  0 mm 0 W/m2
07:44 40.3 °F /  4.6 °C 37.6 °F /  3.1 °C 30.08 in /  1018.5 hPa SE 6.0 mph /  9.7 km/h 11.0 mph /  17.7 km/h 90 % 0.00 in /  0 mm 0 W/m2
07:54 40.5 °F /  4.7 °C 37.8 °F /  3.2 °C 30.08 in /  1018.5 hPa SE 6.0 mph /  9.7 km/h 9.0 mph /  14.5 km/h 90 % 0.00 in /  0 mm 0 W/m2
08:01 40.5 °F /  4.7 °C 37.8 °F /  3.2 °C 30.08 in /  1018.5 hPa SSE 7.0 mph /  11.3 km/h 11.0 mph /  17.7 km/h 90 % 0.00 in /  0 mm 0 W/m2
08:06 40.5 °F /  4.7 °C 37.8 °F /  3.2 °C 30.08 in /  1018.5 hPa SE 10.0 mph /  16.1 km/h 14.0 mph /  22.5 km/h 90 % 0.00 in /  0 mm 0 W/m2
08:14 40.5 °F /  4.7 °C 37.8 °F /  3.2 °C 30.08 in /  1018.5 hPa SE 8.0 mph /  12.9 km/h 12.0 mph /  19.3 km/h 90 % 0.00 in /  0 mm 0 W/m2
08:49 40.5 °F /  4.7 °C 37.5 °F /  3.1 °C 30.08 in /  1018.5 hPa SE 7.0 mph /  11.3 km/h 11.0 mph /  17.7 km/h 89 % 0.00 in /  0 mm 11 W/m2
08:56 40.5 °F /  4.7 °C 37.5 °F /  3.1 °C 30.08 in /  1018.5 hPa SE 12.0 mph /  19.3 km/h 16.0 mph /  25.7 km/h 89 % 0.00 in /  0 mm 9 W/m2
09:07 40.6 °F /  4.8 °C 37.7 °F /  3.2 °C 30.09 in /  1018.8 hPa SSE 10.0 mph /  16.1 km/h 18.0 mph /  29 km/h 89 % 0.00 in /  0 mm 11 W/m2
09:17 40.6 °F /  4.8 °C 37.7 °F /  3.2 °C 30.09 in /  1018.8 hPa SE 11.0 mph /  17.7 km/h 16.0 mph /  25.7 km/h 89 % 0.00 in /  0 mm 9 W/m2
09:23 40.6 °F /  4.8 °C 37.7 °F /  3.2 °C 30.09 in /  1018.8 hPa SE 10.0 mph /  16.1 km/h 15.0 mph /  24.1 km/h 89 % 0.00 in /  0 mm 9 W/m2
09:40 40.8 °F /  4.9 °C 37.8 °F /  3.2 °C 30.09 in /  1018.8 hPa SE 11.0 mph /  17.7 km/h 15.0 mph /  24.1 km/h 89 % 0.00 in /  0 mm 12 W/m2
09:45 40.8 °F /  4.9 °C 37.8 °F /  3.2 °C 30.09 in /  1018.8 hPa SE 9.0 mph /  14.5 km/h 14.0 mph /  22.5 km/h 89 % 0.00 in /  0 mm 12 W/m2
10:04 40.8 °F /  4.9 °C 37.8 °F /  3.2 °C 30.09 in /  1018.8 hPa SE 9.0 mph /  14.5 km/h 14.0 mph /  22.5 km/h 89 % 0.00 in /  0 mm 25 W/m2
10:10 40.8 °F /  4.9 °C 37.8 °F /  3.2 °C 30.09 in /  1018.8 hPa SE 13.0 mph /  20.9 km/h 20.0 mph /  32.2 km/h 89 % 0.00 in /  0 mm 33 W/m2
10:17 40.8 °F /  4.9 °C 37.8 °F /  3.2 °C 30.09 in /  1018.8 hPa SE 10.0 mph /  16.1 km/h 15.0 mph /  24.1 km/h 89 % 0.00 in /  0 mm 28 W/m2
10:23 40.8 °F /  4.9 °C 37.8 °F /  3.2 °C 30.09 in /  1018.8 hPa SE 11.0 mph /  17.7 km/h 16.0 mph /  25.7 km/h 89 % 0.00 in /  0 mm 37 W/m2
10:38 41.0 °F /  5 °C 38.0 °F /  3.3 °C 30.09 in /  1018.8 hPa SE 8.0 mph /  12.9 km/h 16.0 mph /  25.7 km/h 89 % 0.00 in /  0 mm 39 W/m2
10:46 41.2 °F /  5.1 °C 38.2 °F /  3.4 °C 30.09 in /  1018.8 hPa SSE 8.0 mph /  12.9 km/h 13.0 mph /  20.9 km/h 89 % 0.00 in /  0 mm 58 W/m2
10:47 41.2 °F /  5.1 °C 38.2 °F /  3.4 °C 30.09 in /  1018.8 hPa SSE 7.0 mph /  11.3 km/h 13.0 mph /  20.9 km/h 89 % 0.00 in /  0 mm 53 W/m2
10:53 41.2 °F /  5.1 °C 38.2 °F /  3.4 °C 30.09 in /  1018.8 hPa SE 10.0 mph /  16.1 km/h 14.0 mph /  22.5 km/h 89 % 0.00 in /  0 mm 47 W/m2
11:08 41.4 °F /  5.2 °C 38.1 °F /  3.4 °C 30.10 in /  1019.2 hPa SSE 10.0 mph /  16.1 km/h 16.0 mph /  25.7 km/h 88 % 0.00 in /  0 mm 42 W/m2
11:16 41.4 °F /  5.2 °C 38.1 °F /  3.4 °C 30.10 in /  1019.2 hPa SE 10.0 mph /  16.1 km/h 14.0 mph /  22.5 km/h 88 % 0.00 in /  0 mm 39 W/m2
11:22 41.5 °F /  5.3 °C 38.3 °F /  3.5 °C 30.10 in /  1019.2 hPa SE 10.0 mph /  16.1 km/h 16.0 mph /  25.7 km/h 88 % 0.00 in /  0 mm 35 W/m2
11:38 41.5 °F /  5.3 °C 38.0 °F /  3.3 °C 30.09 in /  1018.8 hPa SE 9.0 mph /  14.5 km/h 15.0 mph /  24.1 km/h 87 % 0.00 in /  0 mm 28 W/m2
11:46 41.5 °F /  5.3 °C 38.0 °F /  3.3 °C 30.09 in /  1018.8 hPa SE 7.0 mph /  11.3 km/h 11.0 mph /  17.7 km/h 87 % 0.00 in /  0 mm 30 W/m2
11:56 41.7 °F /  5.4 °C 38.1 °F /  3.4 °C 30.08 in /  1018.5 hPa SE 9.0 mph /  14.5 km/h 13.0 mph /  20.9 km/h 87 % 0.00 in /  0 mm 67 W/m2
12:02 41.7 °F /  5.4 °C 38.1 °F /  3.4 °C 30.08 in /  1018.5 hPa SE 11.0 mph /  17.7 km/h 15.0 mph /  24.1 km/h 87 % 0.00 in /  0 mm 70 W/m2
12:10 41.9 °F /  5.5 °C 38.0 °F /  3.3 °C 30.08 in /  1018.5 hPa SE 11.0 mph /  17.7 km/h 16.0 mph /  25.7 km/h 86 % 0.00 in /  0 mm 70 W/m2
12:16 42.1 °F /  5.6 °C 38.2 °F /  3.4 °C 30.08 in /  1018.5 hPa SSE 10.0 mph /  16.1 km/h 15.0 mph /  24.1 km/h 86 % 0.00 in /  0 mm 67 W/m2
12:21 42.1 °F /  5.6 °C 38.2 °F /  3.4 °C 30.08 in /  1018.5 hPa SE 10.0 mph /  16.1 km/h 15.0 mph /  24.1 km/h 86 % 0.00 in /  0 mm 65 W/m2
12:32 42.3 °F /  5.7 °C 38.4 °F /  3.6 °C 30.08 in /  1018.5 hPa SE 11.0 mph /  17.7 km/h 18.0 mph /  29 km/h 86 % 0.00 in /  0 mm 69 W/m2
12:37 42.3 °F /  5.7 °C 38.4 °F /  3.6 °C 30.07 in /  1018.2 hPa SE 9.0 mph /  14.5 km/h 14.0 mph /  22.5 km/h 86 % 0.00 in /  0 mm 67 W/m2
12:43 42.3 °F /  5.7 °C 38.4 °F /  3.6 °C 30.07 in /  1018.2 hPa SE 12.0 mph /  19.3 km/h 18.0 mph /  29 km/h 86 % 0.00 in /  0 mm 54 W/m2
12:57 42.3 °F /  5.7 °C 38.4 °F /  3.6 °C 30.07 in /  1018.2 hPa SSE 10.0 mph /  16.1 km/h 15.0 mph /  24.1 km/h 86 % 0.00 in /  0 mm 63 W/m2
13:04 42.3 °F /  5.7 °C 38.4 °F /  3.6 °C 30.07 in /  1018.2 hPa SE 9.0 mph /  14.5 km/h 15.0 mph /  24.1 km/h 86 % 0.00 in /  0 mm 58 W/m2
13:13 42.3 °F /  5.7 °C 38.7 °F /  3.7 °C 30.07 in /  1018.2 hPa SE 11.0 mph /  17.7 km/h 15.0 mph /  24.1 km/h 87 % 0.00 in /  0 mm 51 W/m2
13:20 42.3 °F /  5.7 °C 38.7 °F /  3.7 °C 30.07 in /  1018.2 hPa SE 11.0 mph /  17.7 km/h 14.0 mph /  22.5 km/h 87 % 0.00 in /  0 mm 40 W/m2
13:25 42.3 °F /  5.7 °C 38.7 °F /  3.7 °C 30.07 in /  1018.2 hPa SE 8.0 mph /  12.9 km/h 12.0 mph /  19.3 km/h 87 % 0.00 in /  0 mm 40 W/m2
13:35 42.3 °F /  5.7 °C 38.7 °F /  3.7 °C 30.07 in /  1018.2 hPa SE 7.0 mph /  11.3 km/h 13.0 mph /  20.9 km/h 87 % 0.00 in /  0 mm 42 W/m2
13:42 42.3 °F /  5.7 °C 38.7 °F /  3.7 °C 30.07 in /  1018.2 hPa SE 9.0 mph /  14.5 km/h 14.0 mph /  22.5 km/h 87 % 0.00 in /  0 mm 42 W/m2
13:50 42.3 °F /  5.7 °C 38.7 °F /  3.7 °C 30.07 in /  1018.2 hPa SE 10.0 mph /  16.1 km/h 15.0 mph /  24.1 km/h 87 % 0.00 in /  0 mm 42 W/m2
14:01 42.3 °F /  5.7 °C 39.0 °F /  3.9 °C 30.07 in /  1018.2 hPa SE 10.0 mph /  16.1 km/h 13.0 mph /  20.9 km/h 88 % 0.00 in /  0 mm 21 W/m2
14:12 42.3 °F /  5.7 °C 39.0 °F /  3.9 °C 30.07 in /  1018.2 hPa SE 6.0 mph /  9.7 km/h 10.0 mph /  16.1 km/h 88 % 0.00 in /  0 mm 12 W/m2
14:20 42.1 °F /  5.6 °C 38.8 °F /  3.8 °C 30.06 in /  1017.8 hPa SE 7.0 mph /  11.3 km/h 10.0 mph /  16.1 km/h 88 % 0.00 in /  0 mm 12 W/m2
14:27 42.1 °F /  5.6 °C 38.8 °F /  3.8 °C 30.06 in /  1017.8 hPa SE 8.0 mph /  12.9 km/h 13.0 mph /  20.9 km/h 88 % 0.00 in /  0 mm 14 W/m2
14:34 42.1 °F /  5.6 °C 38.8 °F /  3.8 °C 30.06 in /  1017.8 hPa SE 9.0 mph /  14.5 km/h 13.0 mph /  20.9 km/h 88 % 0.00 in /  0 mm 12 W/m2
14:48 42.1 °F /  5.6 °C 38.8 °F /  3.8 °C 30.06 in /  1017.8 hPa SE 7.0 mph /  11.3 km/h 11.0 mph /  17.7 km/h 88 % 0.00 in /  0 mm 18 W/m2
14:53 42.1 °F /  5.6 °C 39.1 °F /  3.9 °C 30.06 in /  1017.8 hPa SE 6.0 mph /  9.7 km/h 10.0 mph /  16.1 km/h 89 % 0.00 in /  0 mm 18 W/m2
14:58 42.3 °F /  5.7 °C 39.2 °F /  4 °C 30.06 in /  1017.8 hPa ESE 6.0 mph /  9.7 km/h 12.0 mph /  19.3 km/h 89 % 0.00 in /  0 mm 14 W/m2
15:03 42.3 °F /  5.7 °C 39.2 °F /  4 °C 30.06 in /  1017.8 hPa SE 7.0 mph /  11.3 km/h 11.0 mph /  17.7 km/h 89 % 0.00 in /  0 mm 12 W/m2
15:10 42.3 °F /  5.7 °C 39.2 °F /  4 °C 30.06 in /  1017.8 hPa ESE 10.0 mph /  16.1 km/h 18.0 mph /  29 km/h 89 % 0.00 in /  0 mm 14 W/m2
15:22 42.3 °F /  5.7 °C 39.2 °F /  4 °C 30.07 in /  1018.2 hPa SE 7.0 mph /  11.3 km/h 13.0 mph /  20.9 km/h 89 % 0.00 in /  0 mm 14 W/m2
15:46 42.3 °F /  5.7 °C 39.2 °F /  4 °C 30.07 in /  1018.2 hPa SE 9.0 mph /  14.5 km/h 13.0 mph /  20.9 km/h 89 % 0.00 in /  0 mm 11 W/m2
15:56 42.3 °F /  5.7 °C 39.0 °F /  3.9 °C 30.06 in /  1017.8 hPa SE 8.0 mph /  12.9 km/h 14.0 mph /  22.5 km/h 88 % 0.00 in /  0 mm 7 W/m2
16:03 42.3 °F /  5.7 °C 39.0 °F /  3.9 °C 30.07 in /  1018.2 hPa SE 8.0 mph /  12.9 km/h 10.0 mph /  16.1 km/h 88 % 0.00 in /  0 mm 5 W/m2
16:13 42.1 °F /  5.6 °C 38.8 °F /  3.8 °C 30.07 in /  1018.2 hPa SE 7.0 mph /  11.3 km/h 10.0 mph /  16.1 km/h 88 % 0.00 in /  0 mm 0 W/m2
16:23 42.1 °F /  5.6 °C 38.8 °F /  3.8 °C 30.07 in /  1018.2 hPa SE 8.0 mph /  12.9 km/h 13.0 mph /  20.9 km/h 88 % 0.00 in /  0 mm 0 W/m2
16:29 42.1 °F /  5.6 °C 38.8 °F /  3.8 °C 30.07 in /  1018.2 hPa ESE 7.0 mph /  11.3 km/h 12.0 mph /  19.3 km/h 88 % 0.00 in /  0 mm 0 W/m2
16:34 42.1 °F /  5.6 °C 39.1 °F /  3.9 °C 30.07 in /  1018.2 hPa SE 8.0 mph /  12.9 km/h 12.0 mph /  19.3 km/h 89 % 0.00 in /  0 mm 0 W/m2
16:48 42.1 °F /  5.6 °C 39.1 °F /  3.9 °C 30.07 in /  1018.2 hPa SE 9.0 mph /  14.5 km/h 14.0 mph /  22.5 km/h 89 % 0.00 in /  0 mm 0 W/m2
16:58 42.1 °F /  5.6 °C 39.1 °F /  3.9 °C 30.07 in /  1018.2 hPa SE 7.0 mph /  11.3 km/h 10.0 mph /  16.1 km/h 89 % 0.00 in /  0 mm 0 W/m2
17:05 42.1 °F /  5.6 °C 39.1 °F /  3.9 °C 30.07 in /  1018.2 hPa SE 7.0 mph /  11.3 km/h 10.0 mph /  16.1 km/h 89 % 0.00 in /  0 mm 0 W/m2
17:16 42.1 °F /  5.6 °C 39.1 °F /  3.9 °C 30.08 in /  1018.5 hPa ESE 7.0 mph /  11.3 km/h 12.0 mph /  19.3 km/h 89 % 0.00 in /  0 mm 0 W/m2
17:37 42.1 °F /  5.6 °C 39.1 °F /  3.9 °C 30.08 in /  1018.5 hPa ESE 6.0 mph /  9.7 km/h 8.0 mph /  12.9 km/h 89 % 0.00 in /  0 mm 0 W/m2
17:45 42.1 °F /  5.6 °C 39.1 °F /  3.9 °C 30.08 in /  1018.5 hPa ESE 6.0 mph /  9.7 km/h 9.0 mph /  14.5 km/h 89 % 0.00 in /  0 mm 0 W/m2
17:54 41.9 °F /  5.5 °C 38.9 °F /  3.8 °C 30.08 in /  1018.5 hPa SE 7.0 mph /  11.3 km/h 13.0 mph /  20.9 km/h 89 % 0.00 in /  0 mm 0 W/m2
18:02 41.9 °F /  5.5 °C 38.9 °F /  3.8 °C 30.09 in /  1018.8 hPa SE 7.0 mph /  11.3 km/h 12.0 mph /  19.3 km/h 89 % 0.00 in /  0 mm 0 W/m2
18:13 41.7 °F /  5.4 °C 38.7 °F /  3.7 °C 30.09 in /  1018.8 hPa SE 8.0 mph /  12.9 km/h 13.0 mph /  20.9 km/h 89 % 0.00 in /  0 mm 0 W/m2
18:18 41.7 °F /  5.4 °C 38.7 °F /  3.7 °C 30.09 in /  1018.8 hPa SE 7.0 mph /  11.3 km/h 14.0 mph /  22.5 km/h 89 % 0.00 in /  0 mm 0 W/m2
18:25 41.5 °F /  5.3 °C 38.8 °F /  3.8 °C 30.09 in /  1018.8 hPa ESE 7.0 mph /  11.3 km/h 12.0 mph /  19.3 km/h 90 % 0.00 in /  0 mm 0 W/m2
18:43 41.4 °F /  5.2 °C 38.6 °F /  3.7 °C 30.09 in /  1018.8 hPa ESE 8.0 mph /  12.9 km/h 13.0 mph /  20.9 km/h 90 % 0.00 in /  0 mm 0 W/m2
18:48 41.2 °F /  5.1 °C 38.5 °F /  3.6 °C 30.09 in /  1018.8 hPa SE 9.0 mph /  14.5 km/h 16.0 mph /  25.7 km/h 90 % 0.00 in /  0 mm 0 W/m2
18:57 41.0 °F /  5 °C 38.3 °F /  3.5 °C 30.10 in /  1019.2 hPa SE 9.0 mph /  14.5 km/h 13.0 mph /  20.9 km/h 90 % 0.00 in /  0 mm 0 W/m2
19:07 40.8 °F /  4.9 °C 38.1 °F /  3.4 °C 30.10 in /  1019.2 hPa SE 7.0 mph /  11.3 km/h 11.0 mph /  17.7 km/h 90 % 0.00 in /  0 mm 0 W/m2
19:23 40.6 °F /  4.8 °C 37.9 °F /  3.3 °C 30.10 in /  1019.2 hPa SE 9.0 mph /  14.5 km/h 13.0 mph /  20.9 km/h 90 % 0.00 in /  0 mm 0 W/m2
19:31 40.5 °F /  4.7 °C 37.8 °F /  3.2 °C 30.10 in /  1019.2 hPa ESE 7.0 mph /  11.3 km/h 11.0 mph /  17.7 km/h 90 % 0.00 in /  0 mm 0 W/m2
19:44 40.5 °F /  4.7 °C 37.8 °F /  3.2 °C 30.10 in /  1019.2 hPa SE 7.0 mph /  11.3 km/h 12.0 mph /  19.3 km/h 90 % 0.00 in /  0 mm 0 W/m2
19:45 40.3 °F /  4.6 °C 37.6 °F /  3.1 °C 30.10 in /  1019.2 hPa SE 8.0 mph /  12.9 km/h 14.0 mph /  22.5 km/h 90 % 0.00 in /  0 mm 0 W/m2
19:50 40.3 °F /  4.6 °C 37.6 °F /  3.1 °C 30.10 in /  1019.2 hPa SE 6.0 mph /  9.7 km/h 11.0 mph /  17.7 km/h 90 % 0.00 in /  0 mm 0 W/m2
19:55 40.3 °F /  4.6 °C 37.6 °F /  3.1 °C 30.10 in /  1019.2 hPa SE 7.0 mph /  11.3 km/h 9.0 mph /  14.5 km/h 90 % 0.00 in /  0 mm 0 W/m2
20:00 40.3 °F /  4.6 °C 37.6 °F /  3.1 °C 30.10 in /  1019.2 hPa SE 8.0 mph /  12.9 km/h 14.0 mph /  22.5 km/h 90 % 0.00 in /  0 mm 0 W/m2
20:06 40.1 °F /  4.5 °C 37.4 °F /  3 °C 30.10 in /  1019.2 hPa SSE 5.0 mph /  8 km/h 8.0 mph /  12.9 km/h 90 % 0.00 in /  0 mm 0 W/m2
20:15 40.1 °F /  4.5 °C 37.4 °F /  3 °C 30.11 in /  1019.5 hPa SE 8.0 mph /  12.9 km/h 13.0 mph /  20.9 km/h 90 % 0.00 in /  0 mm 0 W/m2
20:32 39.9 °F /  4.4 °C 37.2 °F /  2.9 °C 30.11 in /  1019.5 hPa SE 6.0 mph /  9.7 km/h 10.0 mph /  16.1 km/h 90 % 0.00 in /  0 mm 0 W/m2
20:37 39.9 °F /  4.4 °C 36.9 °F /  2.7 °C 30.11 in /  1019.5 hPa SE 7.0 mph /  11.3 km/h 11.0 mph /  17.7 km/h 89 % 0.00 in /  0 mm 0 W/m2
20:52 39.9 °F /  4.4 °C 36.9 °F /  2.7 °C 30.11 in /  1019.5 hPa SE 8.0 mph /  12.9 km/h 12.0 mph /  19.3 km/h 89 % 0.00 in /  0 mm 0 W/m2
21:18 39.7 °F /  4.3 °C 36.8 °F /  2.7 °C 30.11 in /  1019.5 hPa SE 5.0 mph /  8 km/h 10.0 mph /  16.1 km/h 89 % 0.00 in /  0 mm 0 W/m2
21:27 39.7 °F /  4.3 °C 36.8 °F /  2.7 °C 30.11 in /  1019.5 hPa SE 6.0 mph /  9.7 km/h 9.0 mph /  14.5 km/h 89 % 0.00 in /  0 mm 0 W/m2
21:33 39.7 °F /  4.3 °C 36.8 °F /  2.7 °C 30.11 in /  1019.5 hPa SE 5.0 mph /  8 km/h 8.0 mph /  12.9 km/h 89 % 0.00 in /  0 mm 0 W/m2
21:38 39.6 °F /  4.2 °C 36.6 °F /  2.6 °C 30.11 in /  1019.5 hPa SE 9.0 mph /  14.5 km/h 14.0 mph /  22.5 km/h 89 % 0.00 in /  0 mm 0 W/m2
21:48 39.6 °F /  4.2 °C 36.6 °F /  2.6 °C 30.11 in /  1019.5 hPa SE 7.0 mph /  11.3 km/h 10.0 mph /  16.1 km/h 89 % 0.00 in /  0 mm 0 W/m2
22:00 39.6 °F /  4.2 °C 36.6 °F /  2.6 °C 30.11 in /  1019.5 hPa SE 7.0 mph /  11.3 km/h 11.0 mph /  17.7 km/h 89 % 0.00 in /  0 mm 0 W/m2
22:10 39.4 °F /  4.1 °C 36.4 °F /  2.4 °C 30.11 in /  1019.5 hPa SE 6.0 mph /  9.7 km/h 11.0 mph /  17.7 km/h 89 % 0.00 in /  0 mm 0 W/m2
22:16 39.4 °F /  4.1 °C 36.4 °F /  2.4 °C 30.12 in /  1019.9 hPa SE 8.0 mph /  12.9 km/h 12.0 mph /  19.3 km/h 89 % 0.00 in /  0 mm 0 W/m2
22:24 39.4 °F /  4.1 °C 36.1 °F /  2.3 °C 30.12 in /  1019.9 hPa SE 7.0 mph /  11.3 km/h 11.0 mph /  17.7 km/h 88 % 0.00 in /  0 mm 0 W/m2
22:32 39.4 °F /  4.1 °C 36.1 °F /  2.3 °C 30.12 in /  1019.9 hPa SE 7.0 mph /  11.3 km/h 9.0 mph /  14.5 km/h 88 % 0.00 in /  0 mm 0 W/m2
22:39 39.4 °F /  4.1 °C 36.1 °F /  2.3 °C 30.12 in /  1019.9 hPa SE 9.0 mph /  14.5 km/h 14.0 mph /  22.5 km/h 88 % 0.00 in /  0 mm 0 W/m2
22:44 39.4 °F /  4.1 °C 36.1 °F /  2.3 °C 30.13 in /  1020.2 hPa SE 8.0 mph /  12.9 km/h 13.0 mph /  20.9 km/h 88 % 0.00 in /  0 mm 0 W/m2
22:49 39.2 °F /  4 °C 35.7 °F /  2.1 °C 30.12 in /  1019.9 hPa SSE 8.0 mph /  12.9 km/h 12.0 mph /  19.3 km/h 87 % 0.00 in /  0 mm 0 W/m2
23:04 39.2 °F /  4 °C 35.7 °F /  2.1 °C 30.13 in /  1020.2 hPa SE 8.0 mph /  12.9 km/h 12.0 mph /  19.3 km/h 87 % 0.00 in /  0 mm 0 W/m2
23:29 39.2 °F /  4 °C 35.7 °F /  2.1 °C 30.12 in /  1019.9 hPa SE 8.0 mph /  12.9 km/h 12.0 mph /  19.3 km/h 87 % 0.00 in /  0 mm 0 W/m2
23:37 39.2 °F /  4 °C 35.7 °F /  2.1 °C 30.12 in /  1019.9 hPa SE 6.0 mph /  9.7 km/h 9.0 mph /  14.5 km/h 87 % 0.00 in /  0 mm 0 W/m2
23:44 39.2 °F /  4 °C 35.7 °F /  2.1 °C 30.12 in /  1019.9 hPa SE 5.0 mph /  8 km/h 7.0 mph /  11.3 km/h 87 % 0.00 in /  0 mm 0 W/m2
23:52 39.2 °F /  4 °C 35.9 °F /  2.2 °C 30.12 in /  1019.9 hPa SE 4.0 mph /  6.4 km/h 7.0 mph /  11.3 km/h 88 % 0.00 in /  0 mm 0 W/m2
23:59 39.2 °F /  4 °C 35.9 °F /  2.2 °C 30.12 in /  1019.9 hPa SE 5.0 mph /  8 km/h 10.0 mph /  16.1 km/h 88 % 0.00 in /  0 mm 0 W/m2
Delerius-Weather
Compliments of Weather Underground - 1.5 mb

Data updates at regular intervals.